Time;durP1;ratioP1;P1;durP2;ratioP2;P2;SDS_P1;SDS_P2;PMS_P1;PMS_P2;Temp;Humidity;BMP_temperature;BMP_pressure;BME280_temperature;BME280_humidity;BME280_pressure;Samples;Min_cycle;Max_cycle;Signal;HPM_P1;HPM_P2
2023/04/23 00:01:07;;;;;;;2.43;2.23;;;14.90;99.90;;;;;;6146574;23;20428;-69
2023/04/23 00:03:35;;;;;;;2.93;2.63;;;14.90;99.90;;;;;;6139764;23;20441;-69
2023/04/23 00:06:06;;;;;;;7.23;3.00;;;14.90;99.90;;;;;;6143806;23;20803;-69
2023/04/23 00:08:34;;;;;;;3.20;2.90;;;14.90;99.90;;;;;;6146636;23;20987;-69
2023/04/23 00:11:01;;;;;;;2.93;2.23;;;14.90;99.90;;;;;;6145181;23;20488;-69
2023/04/23 00:13:29;;;;;;;3.67;2.63;;;14.90;99.90;;;;;;6136913;23;20530;-69
2023/04/23 00:15:57;;;;;;;2.73;2.50;;;14.90;99.90;;;;;;6138050;23;20504;-69
2023/04/23 00:18:24;;;;;;;3.53;2.40;;;14.90;99.90;;;;;;6142995;23;20532;-69
2023/04/23 00:20:51;;;;;;;3.27;2.97;;;14.90;99.90;;;;;;6138753;23;20465;-69
2023/04/23 00:23:19;;;;;;;4.53;2.80;;;14.80;99.90;;;;;;6125682;23;20942;-69
2023/04/23 00:25:46;;;;;;;3.50;2.30;;;14.80;99.90;;;;;;6149666;23;20830;-69
2023/04/23 00:28:13;;;;;;;2.40;2.20;;;14.80;99.90;;;;;;6139680;23;20456;-69
2023/04/23 00:30:40;;;;;;;4.10;2.57;;;14.80;99.90;;;;;;6146417;23;20540;-69
2023/04/23 00:33:07;;;;;;;3.17;2.27;;;14.80;99.90;;;;;;6135670;23;20532;-69
2023/04/23 00:35:34;;;;;;;4.23;2.67;;;14.80;99.90;;;;;;6147073;23;20808;-69
2023/04/23 00:38:01;;;;;;;2.87;2.60;;;14.70;99.90;;;;;;6138478;23;20830;-69
2023/04/23 00:40:30;;;;;;;3.27;2.97;;;14.70;99.90;;;;;;6136538;23;20459;-69
2023/04/23 00:42:57;;;;;;;2.90;2.67;;;14.60;99.90;;;;;;6138026;23;20516;-69
2023/04/23 00:45:25;;;;;;;4.33;2.90;;;14.50;99.90;;;;;;6141098;23;20485;-69
2023/04/23 00:47:53;;;;;;;3.50;2.90;;;14.40;99.90;;;;;;6143664;23;20630;-69
2023/04/23 00:50:20;;;;;;;4.00;2.80;;;14.30;99.90;;;;;;6144576;23;20826;-69
2023/04/23 00:52:47;;;;;;;4.00;3.40;;;14.20;99.90;;;;;;6143416;23;20791;-70
2023/04/23 00:55:14;;;;;;;2.83;2.40;;;14.10;99.90;;;;;;6142873;23;20782;-69
2023/04/23 00:57:43;;;;;;;2.50;2.30;;;14.00;99.90;;;;;;6147189;23;20461;-69
2023/04/23 01:00:12;;;;;;;4.83;2.67;;;14.00;99.90;;;;;;6145098;23;20480;-69
2023/04/23 01:02:42;;;;;;;3.80;3.03;;;13.90;99.90;;;;;;6145821;23;20432;-69
2023/04/23 01:05:10;;;;;;;3.70;3.10;;;13.80;99.90;;;;;;6132109;23;20430;-69
2023/04/23 01:07:37;;;;;;;4.97;2.90;;;13.80;99.90;;;;;;6145920;23;20801;-69
2023/04/23 01:10:06;;;;;;;7.33;3.70;;;13.80;99.90;;;;;;6145881;23;20961;-69
2023/04/23 01:12:33;;;;;;;3.83;3.53;;;13.70;99.90;;;;;;6144908;23;20978;-69
2023/04/23 01:15:02;;;;;;;4.33;4.03;;;13.70;99.90;;;;;;6145616;23;20530;-69
2023/04/23 01:17:29;;;;;;;4.80;4.30;;;13.60;99.90;;;;;;6147251;23;20526;-70
2023/04/23 01:19:58;;;;;;;4.27;3.97;;;13.60;99.90;;;;;;6137145;23;21261;-69
2023/04/23 01:22:26;;;;;;;5.20;4.10;;;13.60;99.90;;;;;;6145298;23;21018;-70
2023/04/23 01:24:53;;;;;;;4.00;3.70;;;13.60;99.90;;;;;;6132687;23;20522;-69
2023/04/23 01:27:23;;;;;;;5.30;4.80;;;13.60;99.90;;;;;;6137389;23;20801;-69
2023/04/23 01:29:51;;;;;;;4.50;4.13;;;13.60;99.90;;;;;;6146333;23;20847;-69
2023/04/23 01:32:19;;;;;;;4.70;4.30;;;13.60;99.90;;;;;;6148067;23;20546;-69
2023/04/23 01:34:47;;;;;;;6.20;4.97;;;13.60;99.90;;;;;;6147177;23;20522;-69
2023/04/23 01:37:16;;;;;;;5.10;4.63;;;13.60;99.90;;;;;;6141956;23;20438;-69
2023/04/23 01:39:44;;;;;;;4.60;4.20;;;13.60;99.90;;;;;;6153096;23;20441;-69
2023/04/23 01:42:11;;;;;;;4.43;4.03;;;13.60;99.90;;;;;;6145451;23;20467;-69
2023/04/23 01:44:39;;;;;;;4.60;4.30;;;13.60;99.90;;;;;;6148047;23;20432;-69
2023/04/23 01:47:06;;;;;;;5.60;5.10;;;13.60;99.90;;;;;;6136290;23;21005;-69
2023/04/23 01:49:33;;;;;;;4.63;4.23;;;13.60;99.90;;;;;;6143359;23;20438;-69
2023/04/23 01:52:00;;;;;;;5.63;4.60;;;13.60;99.90;;;;;;6144848;23;20473;-69
2023/04/23 01:54:27;;;;;;;5.10;4.27;;;13.60;99.90;;;;;;6146319;23;20447;-69
2023/04/23 01:56:57;;;;;;;4.90;4.60;;;13.70;99.90;;;;;;6137905;23;20596;-69
2023/04/23 01:59:24;;;;;;;4.63;4.30;;;13.60;99.90;;;;;;6149142;23;20451;-69
2023/04/23 02:01:52;;;;;;;6.17;4.30;;;13.90;99.90;;;;;;6144105;23;20503;-69
2023/04/23 02:04:19;;;;;;;4.57;4.13;;;13.70;99.90;;;;;;6137346;23;20442;-69
2023/04/23 02:06:49;;;;;;;4.43;4.03;;;13.70;99.90;;;;;;6135449;23;20957;-69
2023/04/23 02:09:16;;;;;;;4.10;3.80;;;13.70;99.90;;;;;;6145739;23;20532;-69
2023/04/23 02:11:43;;;;;;;4.87;4.47;;;13.70;99.90;;;;;;6140288;23;20970;-69
2023/04/23 02:14:12;;;;;;;4.03;3.73;;;13.70;99.90;;;;;;6144047;23;20812;-69
2023/04/23 02:16:39;;;;;;;5.60;4.27;;;13.70;99.90;;;;;;6146893;23;20449;-69
2023/04/23 02:19:06;;;;;;;5.00;4.60;;;13.70;99.90;;;;;;6147019;23;20538;-70
2023/04/23 02:21:33;;;;;;;4.57;4.10;;;13.70;99.90;;;;;;6146740;23;20450;-70
2023/04/23 02:24:00;;;;;;;4.13;3.80;;;13.70;99.90;;;;;;6139337;23;20943;-70
2023/04/23 02:26:28;;;;;;;4.43;4.13;;;13.80;99.90;;;;;;6138788;23;20519;-69
2023/04/23 02:28:55;;;;;;;4.83;4.20;;;13.80;99.90;;;;;;6142403;23;20519;-69
2023/04/23 02:31:24;;;;;;;5.10;4.70;;;13.70;99.90;;;;;;6146921;23;20503;-69
2023/04/23 02:33:51;;;;;;;4.43;4.13;;;13.70;99.90;;;;;;6142268;23;20434;-69
2023/04/23 02:36:19;;;;;;;5.13;4.73;;;13.60;99.90;;;;;;6140028;23;20438;-70
2023/04/23 02:38:48;;;;;;;5.07;4.67;;;13.60;99.90;;;;;;6145186;23;20450;-69
2023/04/23 02:41:15;;;;;;;4.97;4.57;;;13.60;99.90;;;;;;6148156;23;20515;-70
2023/04/23 02:43:42;;;;;;;5.20;4.50;;;13.60;99.90;;;;;;6141035;23;20828;-70
2023/04/23 02:46:09;;;;;;;4.67;4.33;;;13.60;99.90;;;;;;6148296;23;20461;-70
2023/04/23 02:48:40;;;;;;;4.70;4.30;;;13.60;99.90;;;;;;6145769;23;20497;-70
2023/04/23 02:51:10;;;;;;;4.40;4.10;;;13.50;99.90;;;;;;6147289;23;20444;-70
2023/04/23 02:53:37;;;;;;;4.40;4.00;;;13.50;99.90;;;;;;6145933;23;20445;-70
2023/04/23 02:56:06;;;;;;;5.53;4.20;;;13.50;99.90;;;;;;6144834;23;20446;-70
2023/04/23 02:58:33;;;;;;;4.53;4.00;;;13.40;99.90;;;;;;6147636;23;20452;-70
2023/04/23 03:01:00;;;;;;;4.50;4.10;;;13.40;99.90;;;;;;6145906;23;20465;-70
2023/04/23 03:03:30;;;;;;;5.80;4.60;;;13.40;99.90;;;;;;6140380;23;20827;-70
2023/04/23 03:06:00;;;;;;;4.00;3.70;;;13.40;99.90;;;;;;6141297;23;20472;-70
2023/04/23 03:08:27;;;;;;;3.70;3.27;;;13.40;99.90;;;;;;6143722;23;20453;-70
2023/04/23 03:10:54;;;;;;;3.90;3.60;;;13.30;99.90;;;;;;6145914;23;20433;-70
2023/04/23 03:13:22;;;;;;;3.63;3.33;;;13.30;99.90;;;;;;6149542;23;20976;-70
2023/04/23 03:15:50;;;;;;;4.67;4.10;;;13.20;99.90;;;;;;6142994;23;20439;-70
2023/04/23 03:18:16;;;;;;;5.47;4.80;;;13.20;99.90;;;;;;6148023;23;20505;-70
2023/04/23 03:20:44;;;;;;;6.10;5.13;;;13.40;99.90;;;;;;6147614;23;20880;-69
2023/04/23 03:23:12;;;;;;;5.10;4.70;;;13.00;99.90;;;;;;6146036;23;20477;-70
2023/04/23 03:25:39;;;;;;;5.15;4.65;;;12.90;99.90;;;;;;6140907;23;20438;-70
2023/04/23 03:28:06;;;;;;;5.90;5.33;;;12.80;99.90;;;;;;6143162;23;20775;-70
2023/04/23 03:30:33;;;;;;;5.60;5.10;;;12.70;99.90;;;;;;6143246;23;20452;-70
2023/04/23 03:33:01;;;;;;;5.43;5.03;;;12.70;99.90;;;;;;6144855;23;20313;-70
2023/04/23 03:35:28;;;;;;;5.90;5.40;;;12.70;99.90;;;;;;6150883;23;20510;-70
2023/04/23 03:37:55;;;;;;;4.73;4.40;;;12.70;99.90;;;;;;6131340;23;20528;-70
2023/04/23 03:40:23;;;;;;;6.50;5.90;;;12.70;99.90;;;;;;6146589;23;21026;-70
2023/04/23 03:42:51;;;;;;;5.85;5.35;;;12.60;99.90;;;;;;6144311;23;20468;-70
2023/04/23 03:45:18;;;;;;;6.47;5.87;;;12.60;99.90;;;;;;6136283;23;20184;-70
2023/04/23 03:47:45;;;;;;;6.83;6.20;;;12.60;99.90;;;;;;6130444;23;20487;-70
2023/04/23 03:50:12;;;;;;;5.35;4.85;;;12.60;99.90;;;;;;6135255;23;20438;-70
2023/04/23 03:52:40;;;;;;;6.33;5.80;;;12.60;99.90;;;;;;6141633;23;20225;-70
2023/04/23 03:55:08;;;;;;;5.93;5.37;;;12.60;99.90;;;;;;6139109;23;20993;-70
2023/04/23 03:57:36;;;;;;;5.20;4.80;;;12.60;99.90;;;;;;6143116;23;20542;-70
2023/04/23 04:00:07;;;;;;;4.10;3.80;;;12.70;99.90;;;;;;6145778;23;20937;-70
2023/04/23 04:02:33;;;;;;;3.83;3.53;;;12.70;99.90;;;;;;6140941;23;20943;-70
2023/04/23 04:05:01;;;;;;;4.00;3.70;;;12.70;99.90;;;;;;6152272;23;20473;-70
2023/04/23 04:07:28;;;;;;;4.10;3.80;;;12.70;99.90;;;;;;6144424;23;20846;-70
2023/04/23 04:09:55;;;;;;;4.37;4.00;;;12.70;99.90;;;;;;6141231;23;20442;-70
2023/04/23 04:12:22;;;;;;;4.00;3.50;;;12.70;99.90;;;;;;6142317;23;20465;-70
2023/04/23 04:14:51;;;;;;;4.50;4.10;;;12.70;99.90;;;;;;6149160;23;20517;-70
2023/04/23 04:17:18;;;;;;;5.53;4.50;;;12.70;99.90;;;;;;6137378;23;20208;-70
2023/04/23 04:19:45;;;;;;;4.25;3.85;;;12.60;99.90;;;;;;6146562;23;20948;-70
2023/04/23 04:22:12;;;;;;;3.67;3.47;;;12.60;99.90;;;;;;6139483;23;20219;-70
2023/04/23 04:24:40;;;;;;;3.77;3.47;;;12.60;99.90;;;;;;6147655;23;20434;-70
2023/04/23 04:27:07;;;;;;;4.00;3.70;;;12.50;99.90;;;;;;6147515;23;20467;-70
2023/04/23 04:29:34;;;;;;;3.53;3.23;;;12.50;99.90;;;;;;6147692;23;20793;-70
2023/04/23 04:32:04;;;;;;;3.60;3.30;;;12.50;99.90;;;;;;6142747;23;20456;-70
2023/04/23 04:34:31;;;;;;;3.83;3.30;;;12.50;99.90;;;;;;6138580;23;20203;-70
2023/04/23 04:36:58;;;;;;;4.55;3.40;;;12.40;99.90;;;;;;6138653;23;20186;-70
2023/04/23 04:39:25;;;;;;;2.35;2.20;;;12.40;99.90;;;;;;6143020;23;20193;-70
2023/04/23 04:41:53;;;;;;;2.80;2.60;;;12.40;99.90;;;;;;6146019;23;20269;-70
2023/04/23 04:44:20;;;;;;;2.33;2.13;;;12.30;99.90;;;;;;6143985;23;20270;-70
2023/04/23 04:46:47;;;;;;;2.58;2.38;;;12.30;99.90;;;;;;6128366;23;20563;-70
2023/04/23 04:49:18;;;;;;;2.77;2.20;;;12.30;99.90;;;;;;6142981;23;20563;-70
2023/04/23 04:51:45;;;;;;;2.63;2.43;;;12.30;99.90;;;;;;6140088;23;20854;-70
2023/04/23 04:54:12;;;;;;;2.43;2.23;;;12.30;99.90;;;;;;6148650;23;20560;-70
2023/04/23 04:56:39;;;;;;;2.67;2.47;;;12.30;99.90;;;;;;6147560;23;20940;-70
2023/04/23 04:59:06;;;;;;;2.60;2.40;;;12.30;99.90;;;;;;6143976;23;20682;-70
2023/04/23 05:01:33;;;;;;;2.47;2.30;;;12.30;99.90;;;;;;6147106;23;20441;-70
2023/04/23 05:04:00;;;;;;;2.97;2.77;;;12.30;99.90;;;;;;6140269;23;20470;-70
2023/04/23 05:06:30;;;;;;;2.80;2.60;;;12.40;99.90;;;;;;6139820;23;20438;-70
2023/04/23 05:08:57;;;;;;;2.13;1.93;;;12.40;99.90;;;;;;6158010;23;20511;-70
2023/04/23 05:11:24;;;;;;;2.77;2.57;;;12.60;99.90;;;;;;6148390;23;20800;-70
2023/04/23 05:13:51;;;;;;;3.10;2.80;;;12.70;99.90;;;;;;6142704;23;20525;-70
2023/04/23 05:16:19;;;;;;;2.30;2.20;;;12.50;99.90;;;;;;6137681;23;21009;-70
2023/04/23 05:18:46;;;;;;;2.30;2.10;;;12.50;99.90;;;;;;6141032;23;20809;-70
2023/04/23 05:21:13;;;;;;;2.67;2.47;;;12.50;99.90;;;;;;6147300;23;20506;-71
2023/04/23 05:23:42;;;;;;;2.70;2.50;;;12.60;99.90;;;;;;6133663;23;20441;-70
2023/04/23 05:26:09;;;;;;;2.77;2.57;;;12.70;99.90;;;;;;6132570;23;20442;-70
2023/04/23 05:28:37;;;;;;;2.30;2.10;;;12.50;99.90;;;;;;6131547;23;20546;-70
2023/04/23 05:31:04;;;;;;;2.63;2.00;;;12.80;99.90;;;;;;6130980;23;20472;-71
2023/04/23 05:33:31;;;;;;;2.50;2.30;;;12.90;99.90;;;;;;6136232;23;20505;-71
2023/04/23 05:35:59;;;;;;;1.90;1.80;;;13.00;99.90;;;;;;6142409;23;21889;-70
2023/04/23 05:38:26;;;;;;;2.30;2.10;;;13.10;99.90;;;;;;6145399;23;20623;-70
2023/04/23 05:40:54;;;;;;;2.13;1.90;;;13.10;99.90;;;;;;6142467;23;20524;-70
2023/04/23 05:43:21;;;;;;;2.23;2.00;;;13.10;99.90;;;;;;6139946;23;20534;-70
2023/04/23 05:45:48;;;;;;;3.07;1.90;;;13.10;99.90;;;;;;6128161;23;20446;-70
2023/04/23 05:48:15;;;;;;;2.07;1.97;;;13.10;99.90;;;;;;6135947;23;21096;-70
2023/04/23 05:50:42;;;;;;;2.07;1.87;;;13.10;99.90;;;;;;6133881;23;20460;-72
2023/04/23 05:53:09;;;;;;;2.33;2.13;;;13.20;99.90;;;;;;6131967;23;20536;-70
2023/04/23 05:55:36;;;;;;;2.30;2.10;;;13.30;99.90;;;;;;6138261;23;20465;-70
2023/04/23 05:58:06;;;;;;;2.00;1.90;;;13.40;99.90;;;;;;6140793;23;20455;-70
2023/04/23 06:00:34;;;;;;;2.07;1.83;;;13.40;99.90;;;;;;6139883;23;20435;-71
2023/04/23 06:03:01;;;;;;;2.70;2.20;;;13.60;99.90;;;;;;6126775;23;20862;-70
2023/04/23 06:05:30;;;;;;;2.13;1.93;;;13.70;99.90;;;;;;6128805;23;20448;-71
2023/04/23 06:07:57;;;;;;;2.37;2.17;;;13.70;99.90;;;;;;6140150;23;20447;-71
2023/04/23 06:10:24;;;;;;;1.90;1.80;;;13.70;99.90;;;;;;6134195;23;20428;-71
2023/04/23 06:12:53;;;;;;;2.30;2.20;;;13.70;99.90;;;;;;6136591;23;20470;-72
2023/04/23 06:15:25;;;;;;;1.80;1.70;;;13.70;99.90;;;;;;6141799;23;20446;-72
2023/04/23 06:17:53;;;;;;;1.97;1.87;;;13.70;99.90;;;;;;6123454;23;20464;-70
2023/04/23 06:20:20;;;;;;;3.20;1.90;;;13.80;99.90;;;;;;6143418;23;20490;-71
2023/04/23 06:22:47;;;;;;;2.30;1.90;;;13.80;99.90;;;;;;6127112;23;20447;-71
2023/04/23 06:25:14;;;;;;;1.83;1.73;;;13.70;99.90;;;;;;6126970;23;20437;-70
2023/04/23 06:27:41;;;;;;;1.87;1.77;;;13.60;99.90;;;;;;6129708;23;20448;-71
2023/04/23 06:30:09;;;;;;;1.70;1.60;;;13.70;99.90;;;;;;6129512;23;20530;-71
2023/04/23 06:32:37;;;;;;;2.07;1.67;;;13.70;99.90;;;;;;6136124;23;20473;-71
2023/04/23 06:35:06;;;;;;;1.90;1.60;;;13.80;99.90;;;;;;6125183;23;20444;-70
2023/04/23 06:37:33;;;;;;;1.87;1.77;;;13.70;99.90;;;;;;6126250;23;20548;-71
2023/04/23 06:40:00;;;;;;;2.13;2.03;;;13.70;99.90;;;;;;6132052;23;20471;-71
2023/04/23 06:42:27;;;;;;;1.97;1.87;;;13.80;99.90;;;;;;6126942;23;20461;-82
2023/04/23 06:44:54;;;;;;;2.00;1.80;;;13.90;99.90;;;;;;6135039;23;20430;-76
2023/04/23 06:47:21;;;;;;;2.10;2.00;;;13.70;99.90;;;;;;6136790;23;21017;-71
2023/04/23 06:49:50;;;;;;;1.60;1.50;;;13.70;99.90;;;;;;6147337;23;20431;-71
2023/04/23 06:52:17;;;;;;;1.63;1.53;;;13.80;99.90;;;;;;6141138;23;20492;-71
2023/04/23 06:54:44;;;;;;;2.20;2.00;;;13.90;99.90;;;;;;6140919;23;20537;-71
2023/04/23 06:57:11;;;;;;;2.00;1.90;;;13.90;99.90;;;;;;6147429;23;20455;-71
2023/04/23 06:59:38;;;;;;;2.20;2.10;;;14.00;99.90;;;;;;6143662;23;20432;-71
2023/04/23 07:02:05;;;;;;;2.00;1.90;;;14.00;99.90;;;;;;6140473;23;20519;-71
2023/04/23 07:04:32;;;;;;;1.80;1.70;;;14.00;99.90;;;;;;6142659;23;20467;-71
2023/04/23 07:07:01;;;;;;;1.70;1.60;;;14.20;99.90;;;;;;6140222;23;21516;-71
2023/04/23 07:09:28;;;;;;;1.60;1.50;;;14.30;99.90;;;;;;6138762;23;20437;-71
2023/04/23 07:11:56;;;;;;;1.80;1.70;;;14.60;99.90;;;;;;6132679;23;20508;-71
2023/04/23 07:14:22;;;;;;;1.60;1.50;;;14.70;99.90;;;;;;6142776;23;20465;-71
2023/04/23 07:16:50;;;;;;;1.40;1.30;;;14.60;99.90;;;;;;6139898;23;20497;-71
2023/04/23 07:19:17;;;;;;;1.67;1.37;;;14.90;99.90;;;;;;6141334;23;20432;-71
2023/04/23 07:21:44;;;;;;;1.50;1.40;;;15.30;99.90;;;;;;6130980;23;20469;-71
2023/04/23 07:24:12;;;;;;;1.60;1.50;;;15.60;99.90;;;;;;6135338;23;20528;-71
2023/04/23 07:26:39;;;;;;;1.97;1.30;;;16.00;99.90;;;;;;6120604;23;20524;-71
2023/04/23 07:29:09;;;;;;;1.30;1.17;;;16.40;99.90;;;;;;6149629;23;20433;-71
2023/04/23 07:31:36;;;;;;;1.00;1.00;;;16.60;99.90;;;;;;6142393;23;20433;-71
2023/04/23 07:34:03;;;;;;;1.27;1.00;;;16.90;99.90;;;;;;6124449;23;20580;-71
2023/04/23 07:36:31;;;;;;;0.97;0.87;;;17.00;99.90;;;;;;6137251;23;20442;-71
2023/04/23 07:38:58;;;;;;;1.10;1.00;;;16.90;99.90;;;;;;6140067;23;20416;-71
2023/04/23 07:41:26;;;;;;;1.43;1.33;;;16.80;99.90;;;;;;6139227;23;20435;-71
2023/04/23 07:43:53;;;;;;;1.07;1.00;;;16.60;99.90;;;;;;6144607;23;20429;-71
2023/04/23 07:46:21;;;;;;;3.37;1.40;;;16.40;99.90;;;;;;6138943;23;20755;-71
2023/04/23 07:48:48;;;;;;;1.80;1.50;;;16.30;99.90;;;;;;6141644;23;20960;-71
2023/04/23 07:51:14;;;;;;;1.47;1.37;;;16.10;99.90;;;;;;6133807;23;20490;-71
2023/04/23 07:53:42;;;;;;;1.97;1.77;;;16.10;99.90;;;;;;6129428;23;20588;-71
2023/04/23 07:56:09;;;;;;;1.60;1.50;;;16.10;99.90;;;;;;6133094;23;20456;-71
2023/04/23 07:58:38;;;;;;;1.43;1.33;;;16.30;99.90;;;;;;6147335;23;20484;-71
2023/04/23 08:01:05;;;;;;;1.60;1.50;;;16.40;99.90;;;;;;6143006;23;20515;-71
2023/04/23 08:03:32;;;;;;;1.77;1.67;;;16.60;99.90;;;;;;6142234;23;20471;-71
2023/04/23 08:05:59;;;;;;;1.57;1.47;;;16.70;99.90;;;;;;6142875;23;20489;-71
2023/04/23 08:08:26;;;;;;;1.57;1.47;;;16.80;99.90;;;;;;6147135;23;20511;-71
2023/04/23 08:10:53;;;;;;;2.00;1.90;;;17.10;99.90;;;;;;6139026;23;20448;-71
2023/04/23 08:13:20;;;;;;;1.53;1.43;;;17.40;99.90;;;;;;6132338;23;20472;-71
2023/04/23 08:15:48;;;;;;;1.80;1.70;;;17.10;99.90;;;;;;6138854;23;20958;-71
2023/04/23 08:18:15;;;;;;;1.80;1.70;;;17.20;99.90;;;;;;6143024;23;20966;-71
2023/04/23 08:20:43;;;;;;;1.70;1.60;;;17.10;99.90;;;;;;6132983;23;20461;-72
2023/04/23 08:23:11;;;;;;;2.10;1.90;;;17.40;99.90;;;;;;6135498;23;20944;-71
2023/04/23 08:25:37;;;;;;;1.60;1.50;;;17.50;99.90;;;;;;6136682;23;20441;-71
2023/04/23 08:28:05;;;;;;;1.87;1.70;;;17.50;99.90;;;;;;6142307;23;20790;-71
2023/04/23 08:30:32;;;;;;;1.73;1.40;;;17.80;99.90;;;;;;6140985;23;20495;-71
2023/04/23 08:33:00;;;;;;;1.90;1.80;;;17.90;99.90;;;;;;6133539;23;20452;-71
2023/04/23 08:35:27;;;;;;;1.60;1.50;;;18.00;99.90;;;;;;6129834;23;20495;-71
2023/04/23 08:37:54;;;;;;;1.40;1.30;;;18.00;99.90;;;;;;6140341;23;20491;-71
2023/04/23 08:40:22;;;;;;;1.60;1.50;;;18.00;99.90;;;;;;6136271;23;20430;-71
2023/04/23 08:42:50;;;;;;;1.80;1.70;;;18.00;99.90;;;;;;6135992;23;21010;-71
2023/04/23 08:45:18;;;;;;;2.97;1.70;;;18.10;99.90;;;;;;6130381;23;20442;-71
2023/04/23 08:47:45;;;;;;;1.67;1.57;;;18.20;99.90;;;;;;6145044;23;20546;-71
2023/04/23 08:50:15;;;;;;;1.40;1.30;;;18.40;99.90;;;;;;6127944;23;20439;-71
2023/04/23 08:52:47;;;;;;;1.77;1.67;;;18.60;99.90;;;;;;6139960;23;20461;-71
2023/04/23 08:55:15;;;;;;;2.03;1.80;;;18.80;99.90;;;;;;6132983;23;20865;-71
2023/04/23 08:57:42;;;;;;;1.57;1.47;;;18.50;99.90;;;;;;6132045;23;20464;-71
2023/04/23 09:00:11;;;;;;;2.00;1.83;;;18.10;99.90;;;;;;6128215;23;20976;-72
2023/04/23 09:02:40;;;;;;;1.97;1.80;;;17.80;99.90;;;;;;6136375;23;20486;-71
2023/04/23 09:05:09;;;;;;;1.80;1.70;;;17.80;99.90;;;;;;6130814;23;20877;-71
2023/04/23 09:07:37;;;;;;;1.70;1.60;;;17.90;99.90;;;;;;6133717;23;20453;-71
2023/04/23 09:10:05;;;;;;;1.80;1.70;;;18.10;99.90;;;;;;6133928;23;20457;-71
2023/04/23 09:12:34;;;;;;;4.80;1.50;;;18.30;99.90;;;;;;6139887;23;20945;-71
2023/04/23 09:15:01;;;;;;;1.70;1.60;;;18.40;99.90;;;;;;6132092;23;20489;-71
2023/04/23 09:17:29;;;;;;;2.17;1.97;;;18.40;99.90;;;;;;6134044;23;20460;-71
2023/04/23 09:19:57;;;;;;;1.80;1.70;;;18.40;99.90;;;;;;6135364;23;20512;-71
2023/04/23 09:22:43;;;;;;;1.60;1.50;;;18.50;99.90;;;;;;6135424;23;20429;-71
2023/04/23 09:25:12;;;;;;;2.80;1.73;;;18.70;99.90;;;;;;6124456;23;20529;-71
2023/04/23 09:27:39;;;;;;;2.00;1.70;;;19.00;99.90;;;;;;6124225;23;20955;-71
2023/04/23 09:30:09;;;;;;;1.53;1.43;;;19.20;99.90;;;;;;6134513;23;20440;-71
2023/04/23 09:32:38;;;;;;;2.30;1.80;;;19.80;99.90;;;;;;6132363;23;22033;-71
2023/04/23 09:35:08;;;;;;;1.80;1.70;;;20.40;99.90;;;;;;6148563;23;20474;-71
2023/04/23 09:37:35;;;;;;;2.10;1.90;;;20.50;99.90;;;;;;6126225;23;20441;-71
2023/04/23 09:40:07;;;;;;;2.23;2.03;;;20.00;99.90;;;;;;6139039;23;20441;-71
2023/04/23 09:42:34;;;;;;;2.00;1.80;;;19.50;99.90;;;;;;6139396;23;20426;-71
2023/04/23 09:45:04;;;;;;;1.60;1.50;;;19.30;99.90;;;;;;6142988;23;20436;-71
2023/04/23 09:47:33;;;;;;;2.27;2.10;;;19.40;99.90;;;;;;6144819;23;20506;-71
2023/04/23 09:50:00;;;;;;;1.70;1.60;;;19.50;99.90;;;;;;6137273;23;20435;-71
2023/04/23 09:52:30;;;;;;;3.50;1.97;;;19.50;99.90;;;;;;6142970;23;20428;-71
2023/04/23 09:54:58;;;;;;;2.30;2.10;;;19.50;99.90;;;;;;6129755;23;20460;-71
2023/04/23 09:57:26;;;;;;;2.37;2.17;;;19.60;99.90;;;;;;6141141;23;20458;-71
2023/04/23 09:59:56;;;;;;;2.17;2.07;;;19.50;99.90;;;;;;6135601;23;20432;-71
2023/04/23 10:02:28;;;;;;;1.63;1.53;;;19.50;99.90;;;;;;6130873;23;20453;-71
2023/04/23 10:04:55;;;;;;;1.70;1.60;;;19.60;99.90;;;;;;6133774;23;20437;-71
2023/04/23 10:07:23;;;;;;;1.70;1.60;;;19.70;99.90;;;;;;6140971;23;20514;-71
2023/04/23 10:09:51;;;;;;;1.97;1.73;;;19.90;99.90;;;;;;6126441;23;20438;-71
2023/04/23 10:12:19;;;;;;;1.53;1.43;;;20.30;99.90;;;;;;6134105;23;20436;-71
2023/04/23 10:14:52;;;;;;;1.87;1.67;;;20.70;99.90;;;;;;6142819;23;20551;-72
2023/04/23 10:17:19;;;;;;;2.33;2.13;;;20.90;99.90;;;;;;6138142;23;20565;-71
2023/04/23 10:19:47;;;;;;;1.80;1.70;;;20.50;99.90;;;;;;6131111;23;20531;-71
2023/04/23 10:22:19;;;;;;;2.30;2.10;;;20.00;99.90;;;;;;6138620;23;20436;-72
2023/04/23 10:24:50;;;;;;;2.67;1.90;;;19.50;99.90;;;;;;6142857;23;20999;-71
2023/04/23 10:27:18;;;;;;;2.30;1.67;;;18.70;99.90;;;;;;6130038;23;20904;-71
2023/04/23 10:29:47;;;;;;;1.77;1.60;;;18.00;99.90;;;;;;6138180;23;20795;-71
2023/04/23 10:32:16;;;;;;;1.60;1.50;;;18.10;99.90;;;;;;6134823;23;20432;-71
2023/04/23 10:34:44;;;;;;;1.60;1.50;;;18.20;99.90;;;;;;6135297;23;20464;-71
2023/04/23 10:37:11;;;;;;;1.70;1.47;;;18.40;99.90;;;;;;6146478;23;20454;-71
2023/04/23 10:39:42;;;;;;;1.60;1.50;;;18.80;99.90;;;;;;6146014;23;20519;-71
2023/04/23 10:42:12;;;;;;;1.70;1.60;;;18.90;99.90;;;;;;6140938;23;20429;-71
2023/04/23 10:44:42;;;;;;;1.73;1.63;;;19.20;99.90;;;;;;6144409;23;20879;-71
2023/04/23 10:47:13;;;;;;;1.60;1.50;;;19.20;99.90;;;;;;6146657;23;20452;-71
2023/04/23 10:49:43;;;;;;;1.20;1.10;;;19.50;99.90;;;;;;6144732;23;20443;-71
2023/04/23 10:52:14;;;;;;;1.80;1.70;;;19.60;99.90;;;;;;6143502;23;20450;-71
2023/04/23 10:54:42;;;;;;;1.80;1.70;;;19.70;99.90;;;;;;6131305;23;20461;-71
2023/04/23 10:57:11;;;;;;;2.40;1.30;;;19.60;99.90;;;;;;6133094;23;20457;-71
2023/04/23 10:59:39;;;;;;;1.43;1.33;;;19.60;99.90;;;;;;6133681;23;20929;-70
2023/04/23 11:02:08;;;;;;;1.70;1.60;;;19.30;99.90;;;;;;6132452;23;20444;-71
2023/04/23 11:04:36;;;;;;;1.63;1.53;;;19.40;99.90;;;;;;6131005;23;20535;-71
2023/04/23 11:07:09;;;;;;;1.90;1.10;;;19.50;99.90;;;;;;6147440;23;20455;-71
2023/04/23 11:09:38;;;;;;;0.90;0.90;;;19.70;99.90;;;;;;6141261;23;20522;-71
2023/04/23 11:12:10;;;;;;;1.20;1.10;;;19.60;99.90;;;;;;6133044;23;20951;-71
2023/04/23 11:14:43;;;;;;;1.53;1.10;;;19.50;99.90;;;;;;6141259;23;20463;-71
2023/04/23 11:17:14;;;;;;;1.40;1.30;;;19.60;99.90;;;;;;6147825;23;20490;-71
2023/04/23 11:20:02;;;;;;;1.70;1.20;;;19.60;99.90;;;;;;6141755;23;20894;-71
2023/04/23 11:22:36;;;;;;;1.57;1.00;;;19.50;99.90;;;;;;6134635;23;20432;-71
2023/04/23 11:25:04;;;;;;;1.23;1.13;;;19.60;99.90;;;;;;6124233;23;20450;-71
2023/04/23 11:27:31;;;;;;;1.50;1.37;;;19.60;99.90;;;;;;6139947;23;20462;-71
2023/04/23 11:29:58;;;;;;;1.17;1.07;;;19.30;99.90;;;;;;6132363;23;20467;-71
2023/04/23 11:32:28;;;;;;;1.40;1.30;;;18.80;99.90;;;;;;6138320;23;20515;-71
2023/04/23 11:34:56;;;;;;;1.47;1.00;;;18.90;99.90;;;;;;6141254;23;20463;-71
2023/04/23 11:37:24;;;;;;;1.10;1.00;;;18.70;99.90;;;;;;6141347;23;20504;-71
2023/04/23 11:39:53;;;;;;;1.57;1.10;;;18.90;99.90;;;;;;6139744;23;20439;-71
2023/04/23 11:42:20;;;;;;;2.03;1.00;;;18.70;99.90;;;;;;6148242;23;20491;-71
2023/04/23 11:44:47;;;;;;;1.27;1.17;;;18.80;99.90;;;;;;6136269;23;20489;-71
2023/04/23 11:47:17;;;;;;;1.13;1.00;;;19.00;99.90;;;;;;6136555;23;20462;-71
2023/04/23 11:49:44;;;;;;;3.03;1.17;;;19.30;99.90;;;;;;6146023;23;20524;-71
2023/04/23 11:52:12;;;;;;;1.20;0.93;;;19.60;99.90;;;;;;6132514;23;20436;-71
2023/04/23 11:54:41;;;;;;;0.83;0.83;;;19.90;99.90;;;;;;6143272;23;20819;-71
2023/04/23 11:57:09;;;;;;;0.90;0.90;;;20.20;99.60;;;;;;6136388;23;20466;-71
2023/04/23 11:59:36;;;;;;;1.00;0.83;;;20.60;99.20;;;;;;6132367;23;20440;-71
2023/04/23 12:02:04;;;;;;;1.20;1.10;;;20.80;98.60;;;;;;6144958;23;21035;-71
2023/04/23 12:04:32;;;;;;;0.90;0.90;;;20.90;97.70;;;;;;6139969;23;20486;-71
2023/04/23 12:07:00;;;;;;;1.10;1.00;;;21.00;97.70;;;;;;6144422;23;20453;-71
2023/04/23 12:09:28;;;;;;;1.00;0.90;;;21.30;97.70;;;;;;6140722;23;20437;-71
2023/04/23 12:11:57;;;;;;;1.10;1.00;;;21.50;97.40;;;;;;6142507;23;20482;-71
2023/04/23 12:14:28;;;;;;;1.00;0.90;;;21.80;96.10;;;;;;6138925;23;20494;-71
2023/04/23 12:16:56;;;;;;;1.27;1.10;;;21.80;96.10;;;;;;6146865;23;20457;-71
2023/04/23 12:19:27;;;;;;;2.60;0.90;;;21.80;95.80;;;;;;6130072;23;20434;-71
2023/04/23 12:21:55;;;;;;;1.03;0.93;;;21.80;96.60;;;;;;6141347;23;20473;-71
2023/04/23 12:24:23;;;;;;;0.80;0.80;;;22.00;95.50;;;;;;6136266;23;20445;-71
2023/04/23 12:26:53;;;;;;;0.80;0.80;;;21.90;95.70;;;;;;6139031;23;20525;-71
2023/04/23 12:29:21;;;;;;;1.37;0.90;;;21.90;96.30;;;;;;6133603;23;20491;-71
2023/04/23 12:31:51;;;;;;;1.43;0.93;;;22.00;95.90;;;;;;6140664;23;20436;-71
2023/04/23 12:34:19;;;;;;;1.00;0.90;;;21.90;95.50;;;;;;6144157;23;20520;-71
2023/04/23 12:36:47;;;;;;;1.27;1.00;;;22.20;96.00;;;;;;6142469;23;20475;-71
2023/04/23 12:39:23;;;;;;;1.23;0.90;;;22.20;96.00;;;;;;6130113;23;20831;-71
2023/04/23 12:41:51;;;;;;;1.67;1.10;;;22.10;95.30;;;;;;6148259;23;20476;-71
2023/04/23 12:44:19;;;;;;;0.80;0.80;;;22.10;95.20;;;;;;6136010;23;20838;-71
2023/04/23 12:46:49;;;;;;;1.13;0.90;;;21.80;96.20;;;;;;6128883;23;20457;-71
2023/04/23 12:49:17;;;;;;;1.20;1.03;;;21.50;96.20;;;;;;6136756;23;20770;-71
2023/04/23 12:51:44;;;;;;;1.63;1.10;;;21.30;96.90;;;;;;6133515;23;20490;-70